Penfield, NY (14526)

1:13 AM EDT on May 06, 2015 (GMT -0400)
Country Club East | | Change Station
CLOSE
Current Station
Personal Weather Station
Location: New York, NY
Elevation: 512 ft
Nearby Weather Stations

Elev 512 ft 43.15 °N, 77.44 °W | Updated 52 seconds ago

Mostly Cloudy
Mostly Cloudy
53.4 °F
Feels Like 53.4 °F
N
0.0
Wind Variable Wind from NE

Today
High -- | Low -- °F
--% Chance of Precip.
Yesterday
High -- | Low -- °F
Precip. -- in
5:57 AM 8:16 PM
Waning Gibbous, 96% visible
Pressure 30.30 in
Visibility 10.0 miles
Clouds Mostly Cloudy 5500 ft
Mostly Cloudy 7500 ft
Overcast 18000 ft
Dew Point 47 °F
Humidity 79%
Rainfall 0.00 in
Snow Depth Not available.
UV 0 out of 12
Pollen 8.10 out of 12
Air Quality Not available.
Flu Activity Widespread
METAR KROC 060454Z 00000KT 10SM BKN055 BKN075 OVC180 14/07 A3029 RMK AO2 SLP261 T01390072 401940106

More Conditions Fewer Conditions

Pressure 30.30 in
Visibility 10.0 miles
Clouds Mostly Cloudy 5500 ft
Mostly Cloudy 7500 ft
Overcast 18000 ft
Dew Point 47 °F
Humidity 79%
Rainfall 0.00 in
Snow Depth Not available.
UV 0 out of 12
Pollen 8.10 out of 12
Air Quality Not available.
Flu Activity Widespread
METAR KROC 060454Z 00000KT 10SM BKN055 BKN075 OVC180 14/07 A3029 RMK AO2 SLP261 T01390072 401940106

More Conditions Fewer Conditions

10-Day Weather Forecast

Almanac

Astronomy

May. 06, 2015 Rise Set
Actual Time
Civil Twilight
Nautical Twilight
Astronomical Twilight
Moon
Length of Visible Light
Length of Day
Tomorrow will be .
, % of the Moon is Illuminated

Today's Extremes

State Highs State Lows

Community

WunderPhotos

Upload Photos

1,818,838 photos uploaded!

WunderBlogs® & News

Nearby

Air Quality

  Air Quality AQ Index Pollutant
Not available.

Snow Depth

Station Depth Elevation

Earthquake Activity

City Distance Mag. Time & Date
Minimum magnitude displayed is 2.5.

Coastal Water Temperatures

Place Temperature

Stations

Nearby Weather Stations

Station Location Temp. Windchill Dew Point Humidity Wind Precip. Elev Updated Type